createdAt,value
2022-11-22T00:01:13.314Z,6.00
2022-11-22T00:04:16.599Z,6.40
2022-11-22T00:07:20.012Z,6.10
2022-11-22T00:10:25.324Z,6.10
2022-11-22T00:13:28.754Z,6.10
2022-11-22T00:16:34.788Z,6.10
2022-11-22T00:19:40.036Z,6.10
2022-11-22T00:22:44.939Z,6.20
2022-11-22T00:25:50.721Z,6.10
2022-11-22T00:28:54.010Z,6.20
2022-11-22T00:31:57.497Z,6.20
2022-11-22T00:35:01.023Z,6.20
2022-11-22T00:38:04.640Z,6.20
2022-11-22T00:41:09.474Z,6.20
2022-11-22T00:44:13.295Z,6.10
2022-11-22T00:47:16.488Z,6.20
2022-11-22T00:50:20.191Z,6.10
2022-11-22T00:53:24.213Z,6.10
2022-11-22T00:56:29.436Z,6.10
2022-11-22T00:59:33.061Z,6.10
2022-11-22T01:02:37.368Z,5.30
2022-11-22T01:05:41.049Z,6.00
2022-11-22T01:08:44.750Z,6.00
2022-11-22T01:11:49.710Z,6.00
2022-11-22T01:14:53.301Z,6.00
2022-11-22T01:17:56.814Z,6.00
2022-11-22T01:21:00.394Z,6.00
2022-11-22T01:24:03.844Z,5.90
2022-11-22T01:27:08.733Z,6.00
2022-11-22T01:30:13.386Z,5.90
2022-11-22T01:33:16.657Z,6.00
2022-11-22T01:36:19.966Z,5.90
2022-11-22T01:39:23.563Z,5.90
2022-11-22T01:42:45.180Z,5.90
2022-11-22T01:45:53.409Z,5.80
2022-11-22T01:49:04.306Z,5.80
2022-11-22T01:52:15.668Z,5.70
2022-11-22T01:55:20.125Z,5.60
2022-11-22T01:58:27.804Z,5.70
2022-11-22T02:01:32.189Z,5.60
2022-11-22T02:04:38.684Z,5.60
2022-11-22T02:07:51.987Z,5.60
2022-11-22T02:10:59.800Z,5.70
2022-11-22T02:14:06.479Z,5.70
2022-11-22T02:17:09.868Z,5.70
2022-11-22T02:20:14.326Z,5.70
2022-11-22T02:23:27.441Z,5.70
2022-11-22T02:26:33.508Z,5.70
2022-11-22T02:29:37.656Z,5.70
2022-11-22T02:32:40.993Z,5.80
2022-11-22T02:35:45.560Z,5.80
2022-11-22T02:38:49.024Z,5.80
2022-11-22T02:41:56.938Z,5.80
2022-11-22T02:45:00.252Z,5.80
2022-11-22T02:48:09.877Z,5.80
2022-11-22T02:51:17.309Z,5.80
2022-11-22T02:54:20.874Z,5.80
2022-11-22T02:57:25.826Z,5.70
2022-11-22T03:00:29.828Z,5.70
2022-11-22T03:03:34.476Z,5.70
2022-11-22T03:06:38.498Z,5.70
2022-11-22T03:09:41.768Z,5.50
2022-11-22T03:12:46.501Z,5.70
2022-11-22T03:15:50.055Z,5.70
2022-11-22T03:18:53.517Z,5.70
2022-11-22T03:21:57.326Z,5.70
2022-11-22T03:25:01.616Z,5.70
2022-11-22T03:28:07.822Z,5.70
2022-11-22T03:31:10.987Z,6.00
2022-11-22T03:34:14.869Z,5.70
2022-11-22T03:37:18.331Z,5.70
2022-11-22T03:40:22.120Z,4.80
2022-11-22T03:43:27.390Z,5.70
2022-11-22T03:46:30.958Z,5.70
2022-11-22T03:49:34.177Z,5.70
2022-11-22T03:52:38.380Z,5.60
2022-11-22T03:55:42.380Z,5.70
2022-11-22T03:58:46.996Z,5.70
2022-11-22T04:01:50.386Z,5.70
2022-11-22T04:04:53.719Z,5.40
2022-11-22T04:07:58.258Z,6.10
2022-11-22T04:11:01.844Z,6.30
2022-11-22T04:14:24.496Z,5.70
2022-11-22T04:17:42.019Z,5.70
2022-11-22T04:21:03.146Z,5.80
2022-11-22T04:24:27.759Z,6.50
2022-11-22T04:27:30.910Z,5.80
2022-11-22T04:30:54.074Z,5.90
2022-11-22T04:33:57.267Z,7.00
2022-11-22T04:37:01.219Z,6.20
2022-11-22T04:40:04.773Z,6.00
2022-11-22T04:43:28.139Z,6.00
2022-11-22T04:46:32.890Z,6.00
2022-11-22T04:49:36.288Z,6.10
2022-11-22T04:52:53.913Z,6.00
2022-11-22T04:55:57.926Z,6.00
2022-11-22T04:59:02.183Z,6.10
2022-11-22T05:02:07.313Z,6.10
2022-11-22T05:05:11.818Z,6.10
2022-11-22T05:08:16.635Z,6.20
2022-11-22T05:11:20.709Z,6.20
2022-11-22T05:14:24.039Z,6.20
2022-11-22T05:17:28.897Z,6.30
2022-11-22T05:20:32.320Z,6.30
2022-11-22T05:23:57.328Z,6.50
2022-11-22T05:27:02.021Z,6.40
2022-11-22T05:30:07.766Z,7.10
2022-11-22T05:33:12.402Z,6.40
2022-11-22T05:36:15.800Z,6.40
2022-11-22T05:39:19.950Z,7.30
2022-11-22T05:42:23.450Z,6.40
2022-11-22T05:45:27.038Z,7.30
2022-11-22T05:48:31.989Z,6.50
2022-11-22T05:51:35.349Z,6.50
2022-11-22T05:54:39.694Z,6.50
2022-11-22T05:57:42.865Z,6.50
2022-11-22T06:00:46.504Z,6.60
2022-11-22T06:03:52.575Z,6.60
2022-11-22T06:06:56.559Z,6.60
2022-11-22T06:09:59.755Z,6.60
2022-11-22T06:13:03.590Z,6.50
2022-11-22T06:16:09.826Z,6.70
2022-11-22T06:19:14.550Z,6.70
2022-11-22T06:22:17.769Z,6.70
2022-11-22T06:25:22.089Z,6.70
2022-11-22T06:28:30.278Z,6.70
2022-11-22T06:31:34.291Z,6.80
2022-11-22T06:34:39.050Z,6.60
2022-11-22T06:37:42.556Z,6.70
2022-11-22T06:40:46.262Z,6.80
2022-11-22T06:43:51.813Z,6.70
2022-11-22T06:46:55.389Z,6.80
2022-11-22T06:50:01.153Z,6.80
2022-11-22T06:53:04.453Z,6.80
2022-11-22T06:56:12.549Z,6.80
2022-11-22T06:59:16.040Z,7.40
2022-11-22T07:02:20.057Z,6.80
2022-11-22T07:05:26.160Z,6.80
2022-11-22T07:08:29.835Z,6.70
2022-11-22T07:11:34.683Z,6.80
2022-11-22T07:14:39.283Z,6.80
2022-11-22T07:17:42.596Z,6.80
2022-11-22T07:20:47.504Z,7.30
2022-11-22T07:23:53.786Z,6.90
2022-11-22T07:26:57.508Z,6.60
2022-11-22T07:30:01.426Z,6.90
2022-11-22T07:33:04.925Z,6.90
2022-11-22T07:36:13.455Z,7.80
2022-11-22T07:39:16.947Z,6.90
2022-11-22T07:42:25.838Z,6.90
2022-11-22T07:45:29.675Z,6.90
2022-11-22T07:48:33.172Z,6.90
2022-11-22T07:51:37.903Z,7.00
2022-11-22T07:54:41.299Z,6.10
2022-11-22T07:57:44.782Z,7.00
2022-11-22T08:00:48.310Z,7.00
2022-11-22T08:03:51.822Z,7.00
2022-11-22T08:06:56.622Z,7.00
2022-11-22T08:10:00.544Z,7.10
2022-11-22T08:13:08.165Z,7.10
2022-11-22T08:16:17.172Z,7.10
2022-11-22T08:19:20.344Z,7.60
2022-11-22T08:22:25.299Z,7.10
2022-11-22T08:25:28.925Z,7.60
2022-11-22T08:28:32.924Z,7.10
2022-11-22T08:31:36.511Z,7.20
2022-11-22T08:34:46.780Z,7.80
2022-11-22T08:37:57.266Z,7.30
2022-11-22T08:41:01.075Z,7.20
2022-11-22T08:44:05.372Z,7.30
2022-11-22T08:47:09.295Z,7.30
2022-11-22T08:50:13.377Z,7.30
2022-11-22T08:53:18.281Z,7.30
2022-11-22T08:56:21.633Z,7.30
2022-11-22T08:59:25.391Z,7.40
2022-11-22T09:02:29.143Z,7.40
2022-11-22T09:05:33.189Z,7.70
2022-11-22T09:08:43.610Z,7.40
2022-11-22T09:11:48.046Z,7.40
2022-11-22T09:14:51.564Z,8.20
2022-11-22T09:18:01.527Z,7.40
2022-11-22T09:21:08.045Z,6.50
2022-11-22T09:24:13.504Z,7.40
2022-11-22T09:27:17.236Z,7.50
2022-11-22T09:30:21.562Z,7.50
2022-11-22T09:33:25.146Z,7.50
2022-11-22T09:36:29.166Z,7.50
2022-11-22T09:39:35.853Z,7.50
2022-11-22T09:43:00.979Z,7.60
2022-11-22T09:46:24.294Z,7.60
2022-11-22T09:49:31.126Z,7.60
2022-11-22T09:52:43.739Z,7.70
2022-11-22T09:55:53.770Z,7.60
2022-11-22T09:59:05.143Z,7.60
2022-11-22T10:02:19.040Z,7.60
2022-11-22T10:05:27.037Z,7.70
2022-11-22T10:08:41.582Z,7.70
2022-11-22T10:11:52.563Z,7.70
2022-11-22T10:15:04.958Z,7.60
2022-11-22T10:18:21.972Z,7.80
2022-11-22T10:21:28.093Z,7.70
2022-11-22T10:24:32.388Z,8.20
2022-11-22T10:27:37.780Z,7.70
2022-11-22T10:30:55.359Z,7.80
2022-11-22T10:34:12.359Z,7.80
2022-11-22T10:37:25.464Z,7.80
2022-11-22T10:40:43.107Z,7.80
2022-11-22T10:44:04.020Z,7.90
2022-11-22T10:47:18.265Z,7.80
2022-11-22T10:50:30.687Z,7.80
2022-11-22T10:53:58.872Z,7.80
2022-11-22T10:57:18.451Z,7.80
2022-11-22T11:00:25.931Z,7.80
2022-11-22T11:03:35.104Z,7.80
2022-11-22T11:07:10.318Z,7.80
2022-11-22T11:10:29.097Z,7.90
2022-11-22T11:13:41.210Z,7.30
2022-11-22T11:16:47.526Z,7.90
2022-11-22T11:19:54.957Z,7.90
2022-11-22T11:23:14.377Z,7.90
2022-11-22T11:26:28.477Z,7.90
2022-11-22T11:29:47.517Z,7.80
2022-11-22T11:32:57.573Z,7.90
2022-11-22T11:36:08.174Z,7.80
2022-11-22T11:39:22.314Z,7.80
2022-11-22T11:42:31.154Z,7.80
2022-11-22T11:45:34.415Z,7.80
2022-11-22T11:48:41.385Z,7.30
2022-11-22T11:51:48.531Z,7.80
2022-11-22T11:54:56.303Z,8.30
2022-11-22T11:58:00.111Z,7.20
2022-11-22T12:01:03.369Z,7.70
2022-11-22T12:04:21.229Z,7.70
2022-11-22T12:07:27.949Z,7.70
2022-11-22T12:10:42.491Z,7.70
2022-11-22T12:14:19.019Z,7.80
2022-11-22T12:17:24.949Z,7.80
2022-11-22T12:20:44.209Z,7.80
2022-11-22T12:24:13.480Z,7.80
2022-11-22T12:27:21.093Z,8.70
2022-11-22T12:30:25.808Z,7.80
2022-11-22T12:33:39.799Z,7.80
2022-11-22T12:36:51.551Z,7.90
2022-11-22T12:40:00.262Z,7.90
2022-11-22T12:43:12.199Z,7.90
2022-11-22T12:46:26.623Z,8.00
2022-11-22T12:49:39.648Z,8.10
2022-11-22T12:52:57.811Z,8.10
2022-11-22T12:56:17.792Z,8.10
2022-11-22T12:59:36.024Z,8.10
2022-11-22T13:02:49.042Z,8.10
2022-11-22T13:05:57.774Z,8.20
2022-11-22T13:09:13.161Z,8.20
2022-11-22T13:12:24.900Z,9.10
2022-11-22T13:15:33.104Z,8.00
2022-11-22T13:18:42.836Z,8.20
2022-11-22T13:22:16.040Z,8.20
2022-11-22T13:25:47.458Z,8.20
2022-11-22T13:28:52.915Z,8.20
2022-11-22T13:32:16.121Z,8.20
2022-11-22T13:35:30.442Z,8.20
2022-11-22T13:38:35.089Z,8.10
2022-11-22T13:41:49.926Z,8.20
2022-11-22T13:45:23.627Z,8.60
2022-11-22T13:49:14.767Z,8.80
2022-11-22T13:52:51.229Z,8.20
2022-11-22T13:55:54.666Z,8.20
2022-11-22T13:59:15.765Z,8.20
2022-11-22T14:02:25.273Z,8.20
2022-11-22T14:05:41.749Z,8.10
2022-11-22T14:08:46.259Z,8.40
2022-11-22T14:12:27.000Z,8.20
2022-11-22T14:15:58.554Z,8.20
2022-11-22T14:19:25.370Z,8.50
2022-11-22T14:22:46.916Z,8.20
2022-11-22T14:26:10.415Z,8.20
2022-11-22T14:30:06.686Z,8.20
2022-11-22T14:33:20.293Z,8.20
2022-11-22T14:36:24.089Z,8.30
2022-11-22T14:40:02.383Z,8.20
2022-11-22T14:43:30.803Z,8.20
2022-11-22T14:46:57.277Z,8.20
2022-11-22T14:50:06.386Z,9.00
2022-11-22T14:53:29.745Z,8.20
2022-11-22T14:56:36.603Z,8.20
2022-11-22T15:00:03.661Z,8.20
2022-11-22T15:03:36.369Z,8.20
2022-11-22T15:09:15.368Z,8.30
2022-11-22T15:10:50.587Z,8.30
2022-11-22T15:14:30.474Z,8.10
2022-11-22T15:58:52.600Z,8.40
2022-11-22T16:01:59.084Z,8.40
2022-11-22T16:06:09.337Z,8.40
2022-11-22T16:08:37.778Z,9.00
2022-11-22T16:11:47.982Z,8.40
2022-11-22T16:15:00.187Z,8.80
2022-11-22T16:18:14.808Z,8.50
2022-11-22T16:21:35.024Z,8.50
2022-11-22T16:24:39.869Z,8.50
2022-11-22T16:27:54.002Z,7.90
2022-11-22T16:31:09.073Z,8.50
2022-11-22T16:34:14.930Z,8.50
2022-11-22T16:37:39.084Z,8.50
2022-11-22T16:40:51.938Z,8.50
2022-11-22T16:44:06.111Z,9.50
2022-11-22T16:47:22.989Z,8.60
2022-11-22T16:50:27.336Z,8.50
2022-11-22T16:53:47.930Z,8.60
2022-11-22T16:56:58.205Z,8.60
2022-11-22T17:00:30.997Z,8.50
2022-11-22T17:03:57.028Z,8.60
2022-11-22T17:07:09.816Z,8.60
2022-11-22T17:10:18.175Z,8.50
2022-11-22T17:13:56.236Z,8.60
2022-11-22T17:17:07.243Z,8.50
2022-11-22T17:20:20.140Z,8.50
2022-11-22T17:23:39.742Z,8.50
2022-11-22T17:26:56.436Z,8.60
2022-11-22T17:30:08.356Z,8.50
2022-11-22T17:33:16.572Z,8.50
2022-11-22T17:36:34.923Z,8.50
2022-11-22T17:39:46.398Z,7.90
2022-11-22T17:42:51.462Z,8.50
2022-11-22T17:46:01.960Z,8.50
2022-11-22T17:49:09.054Z,8.60
2022-11-22T17:52:22.815Z,8.60
2022-11-22T17:55:48.389Z,8.60
2022-11-22T17:59:02.986Z,8.60
2022-11-22T18:02:06.601Z,8.60
2022-11-22T18:05:17.276Z,8.60
2022-11-22T18:08:27.851Z,8.50
2022-11-22T18:11:33.279Z,8.60
2022-11-22T18:14:44.055Z,8.60
2022-11-22T18:17:47.352Z,8.50
2022-11-22T18:20:57.920Z,8.50
2022-11-22T18:24:09.914Z,8.50
2022-11-22T18:27:21.001Z,8.80
2022-11-22T18:30:24.790Z,8.50
2022-11-22T18:33:38.344Z,8.60
2022-11-22T18:37:01.891Z,8.50
2022-11-22T18:40:17.901Z,8.50
2022-11-22T18:43:31.049Z,8.50
2022-11-22T18:46:34.873Z,8.60
2022-11-22T18:49:46.018Z,8.50
2022-11-22T18:53:04.954Z,8.50
2022-11-22T18:56:17.355Z,8.60
2022-11-22T18:59:29.094Z,8.60
2022-11-22T19:02:42.452Z,8.60
2022-11-22T19:06:04.295Z,8.00
2022-11-22T19:09:31.635Z,8.70
2022-11-22T19:12:37.569Z,8.70
2022-11-22T19:15:58.568Z,8.70
2022-11-22T19:19:13.138Z,8.70
2022-11-22T19:22:54.748Z,8.70
2022-11-22T19:26:06.562Z,8.70
2022-11-22T19:29:39.660Z,8.70
2022-11-22T19:37:43.128Z,8.30
2022-11-22T19:45:36.595Z,8.90
2022-11-22T19:49:10.483Z,8.70
2022-11-22T19:53:02.940Z,8.50
2022-11-22T19:56:18.130Z,8.60
2022-11-22T20:00:11.096Z,8.60
2022-11-22T20:03:55.478Z,8.60
2022-11-22T20:07:27.606Z,8.60
2022-11-22T20:10:47.416Z,8.60
2022-11-22T20:14:02.872Z,8.60
2022-11-22T20:17:14.880Z,8.60
2022-11-22T20:20:19.063Z,8.60
2022-11-22T20:23:33.327Z,8.60
2022-11-22T20:26:43.682Z,8.60
2022-11-22T20:29:48.822Z,8.50
2022-11-22T20:33:00.765Z,8.30
2022-11-22T20:36:06.722Z,8.50
2022-11-22T20:39:19.803Z,8.60
2022-11-22T20:42:34.468Z,8.50
2022-11-22T20:45:38.940Z,9.10
2022-11-22T20:48:52.940Z,8.30
2022-11-22T20:52:03.736Z,8.20
2022-11-22T20:55:09.072Z,9.10
2022-11-22T20:58:20.765Z,8.00
2022-11-22T21:01:36.776Z,8.00
2022-11-22T21:04:52.949Z,7.90
2022-11-22T21:08:05.241Z,7.80
2022-11-22T21:11:35.051Z,7.70
2022-11-22T21:14:44.623Z,7.70
2022-11-22T21:18:23.051Z,7.60
2022-11-22T21:21:22.890Z,7.60
2022-11-22T21:24:32.834Z,7.60
2022-11-22T21:27:43.596Z,7.40
2022-11-22T21:30:52.613Z,7.50
2022-11-22T21:34:04.595Z,7.50
2022-11-22T21:37:08.925Z,7.50
2022-11-22T21:40:20.614Z,7.50
2022-11-22T21:43:30.659Z,7.50
2022-11-22T21:46:40.614Z,7.40
2022-11-22T21:49:49.574Z,7.90
2022-11-22T21:53:00.559Z,7.60
2022-11-22T21:56:03.817Z,7.60
2022-11-22T21:59:13.565Z,7.60
2022-11-22T22:02:16.510Z,7.70
2022-11-22T22:05:26.711Z,7.70
2022-11-22T22:08:37.647Z,7.80
2022-11-22T22:11:47.754Z,8.00
2022-11-22T22:14:57.594Z,7.70
2022-11-22T22:18:00.510Z,7.70
2022-11-22T22:21:12.559Z,7.70
2022-11-22T22:24:23.553Z,7.70
2022-11-22T22:27:26.486Z,7.50
2022-11-22T22:30:35.579Z,7.70
2022-11-22T22:33:47.670Z,7.60
2022-11-22T22:36:57.616Z,7.60
2022-11-22T22:40:08.509Z,7.60
2022-11-22T22:43:11.436Z,7.60
2022-11-22T22:46:24.546Z,7.60
2022-11-22T22:49:33.872Z,7.50
2022-11-22T22:52:36.921Z,7.50
2022-11-22T22:56:01.514Z,7.50
2022-11-22T22:59:05.177Z,7.50
2022-11-22T23:02:14.599Z,7.50
2022-11-22T23:05:24.493Z,7.50
2022-11-22T23:08:27.368Z,7.50
2022-11-22T23:11:57.560Z,7.50
2022-11-22T23:15:00.549Z,7.50
2022-11-22T23:18:10.506Z,7.50
2022-11-22T23:21:22.516Z,7.60
2022-11-22T23:24:25.597Z,7.80
2022-11-22T23:27:36.631Z,7.60
2022-11-22T23:30:39.565Z,7.60
2022-11-22T23:33:51.470Z,7.60
2022-11-22T23:36:54.505Z,7.60
2022-11-22T23:40:04.541Z,7.70
2022-11-22T23:43:15.455Z,7.70
2022-11-22T23:46:24.507Z,7.60
2022-11-22T23:49:27.384Z,7.60
2022-11-22T23:52:37.498Z,7.70
2022-11-22T23:55:46.455Z,7.70
2022-11-22T23:58:58.483Z,7.70
